Flight Track Log - Related Links

Times and Time Zones

All times are in EDT time to prevent confusion due to time zone crossing. See the SKW4473 flight status page for this flight to view local times or setup timezone preferences in your user account.

Time Position Orientation Groundspeed Altitude Reporting Facility
EDT Latitude Longitude Course Direction KTS MPH feet Rate Location/Type
Tue 01:14:03 PM 40.8075 -111.9619 37° Northeast 177 204 5,000  Level Salt Lake Center
Tue 01:15:12 PM 40.8681 -111.9717 353° North 194 223 7,100 2,047 Climbing Salt Lake Center
Tue 01:15:28 PM 40.8894 -111.9739 356° North 229 264 7,900 3,148 Climbing Salt Lake Center
Tue 01:16:00 PM 41.0850 -111.9966 56° Northeast  Level FlightAware Approximate
Tue 01:16:13 PM 40.9381 -111.9808 354° North 245 282 10,300  Level Salt Lake Center
Tue 01:17:00 PM 41.1511 -111.8945 43° Northeast  Level FlightAware Approximate
Tue 01:17:15 PM 41.0089 -111.9483 19° North 254 292 13,500  Level Salt Lake Center
Tue 01:18:00 PM 41.2303 -111.8167 North  Level FlightAware Approximate
Tue 01:18:16 PM 41.0822 -111.9383 North 266 306 16,000  Level Salt Lake Center
Tue 01:19:00 PM 41.3171 -111.7496 37° Northeast  Level FlightAware Approximate
Tue 01:19:18 PM 41.1642 -111.9375 360° North 290 334 18,100  Level Salt Lake Center
Tue 01:20:19 PM 41.2514 -111.9383 360° North 292 336 20,500 2,195 Climbing Salt Lake Center
Tue 01:21:21 PM 41.3328 -111.9397 359° North 292 336 22,600 1,854 Climbing Salt Lake Center
Tue 01:22:22 PM 41.4161 -111.9392 360° North 300 345 24,300 1,707 Climbing Salt Lake Center
Tue 01:23:24 PM 41.5047 -111.9403 359° North 297 342 26,100 1,415 Climbing Salt Lake Center
Tue 01:24:25 PM 41.5889 -111.9408 360° North 303 349 27,200 1,122 Climbing Salt Lake Center
Tue 01:25:27 PM 41.6747 -111.9419 359° North 311 358 28,400 1,073 Climbing Salt Lake Center
Tue 01:26:28 PM 41.7686 -111.9422 360° North 315 362 29,400 878 Climbing Salt Lake Center
Tue 01:27:30 PM 41.8606 -111.9425 360° North 318 366 30,200 683 Climbing Salt Lake Center
Tue 01:28:31 PM 41.9472 -111.9433 360° North 324 373 30,800 585 Climbing Salt Lake Center
Tue 01:29:33 PM 42.0361 -111.9436 360° North 331 381 31,400 581 Climbing Salt Lake Center
Tue 01:30:35 PM 42.1436 -111.9447 360° North 343 395 32,000 293 Climbing Salt Lake Center
Tue 01:31:36 PM 42.2381 -111.9458 360° North 352 405 32,000  Level Salt Lake Center
Tue 01:32:38 PM 42.3544 -111.9456 360° North 369 425 32,000  Level Salt Lake Center
Tue 01:33:40 PM 42.4544 -111.9472 359° North 378 435 32,000  Level Salt Lake Center
Tue 01:34:41 PM 42.5733 -111.9481 360° North 381 438 32,000  Level Salt Lake Center
Tue 01:35:43 PM 42.6769 -111.9467 North 387 445 32,000  Level Salt Lake Center
Tue 01:36:45 PM 42.7794 -111.9500 359° North 385 443 32,000  Level Salt Lake Center
Tue 01:37:46 PM 42.8983 -111.9489 360° North 383 441 32,000  Level Salt Lake Center
Tue 01:38:48 PM 42.9986 -111.9511 359° North 379 436 32,000  Level Salt Lake Center
Tue 01:39:50 PM 43.1167 -111.9519 360° North 378 435 32,000  Level Salt Lake Center
Tue 01:40:51 PM 43.2172 -111.9533 359° North 378 435 32,000  Level Salt Lake Center
Tue 01:41:53 PM 43.3347 -111.9556 359° North 378 435 32,000  Level Salt Lake Center
Tue 01:42:55 PM 43.4358 -111.9564 360° North 381 438 32,000  Level Salt Lake Center
Tue 01:43:57 PM 43.5367 -111.9572 360° North 380 437 32,000  Level Salt Lake Center
Tue 01:44:58 PM 43.6519 -111.9569 360° North 373 429 32,000  Level Salt Lake Center
Tue 01:46:00 PM 43.7489 -111.9589 359° North 367 422 32,000  Level Salt Lake Center
Tue 01:47:02 PM 43.8592 -111.9594 360° North 356 410 32,000  Level Salt Lake Center
Tue 01:48:04 PM 43.9525 -111.9594 360° North 350 403 32,000  Level Salt Lake Center
Tue 01:49:06 PM 44.0628 -111.9606 360° North 354 407 32,000  Level Salt Lake Center
Tue 01:50:07 PM 44.1561 -111.9625 359° North 352 405 32,000  Level Salt Lake Center
Tue 01:51:09 PM 44.2497 -111.9619 360° North 351 404 32,000  Level Salt Lake Center
Tue 01:52:11 PM 44.3589 -111.9608 360° North 350 403 32,000  Level Salt Lake Center
Tue 01:53:13 PM 44.4531 -111.9631 359° North 351 404 32,000  Level Salt Lake Center
Tue 01:54:14 PM 44.5639 -111.9639 360° North 354 407 32,000  Level Salt Lake Center
Tue 01:55:16 PM 44.6589 -111.9644 360° North 355 409 32,000  Level Salt Lake Center
Tue 01:56:18 PM 44.7697 -111.9650 360° North 355 409 32,000  Level Salt Lake Center
Tue 01:57:20 PM 44.8656 -111.9656 360° North 359 413 32,000  Level Salt Lake Center
Tue 01:58:22 PM 44.9600 -111.9667 360° North 355 409 32,000  Level Salt Lake Center
Tue 01:59:23 PM 45.0711 -111.9675 360° North 357 411 32,000  Level Salt Lake Center
Tue 02:00:25 PM 45.1761 -111.9678 360° North 356 410 32,000 -242 Level Salt Lake Center
Tue 02:01:27 PM 45.2758 -111.9694 359° North 358 412 31,500 -1,161 Descending Salt Lake Center
Tue 02:02:29 PM 45.3753 -111.9700 360° North 358 412 29,600 -1,839 Descending Salt Lake Center
Tue 02:03:31 PM 45.4772 -111.9722 359° North 363 418 27,700 -1,951 Descending Salt Lake Center
Tue 02:04:32 PM 45.5825 -111.9728 360° North 375 432 25,600 -2,000 Descending Salt Lake Center
Tue 02:05:34 PM 45.6900 -111.9733 360° North 382 440 23,600 -1,935 Descending Salt Lake Center
Tue 02:06:36 PM 45.7972 -111.9742 360° North 384 442 21,600 -1,935 Descending Salt Lake Center
Tue 02:07:38 PM 45.9022 -111.9767 359° North 375 432 19,600 -1,790 Descending Salt Lake Center
Tue 02:08:40 PM 46.0044 -111.9767 360° North 367 422 17,900 -2,032 Descending Salt Lake Center
Tue 02:09:42 PM 46.1222 -111.9792 359° North 352 405 15,400 -1,935 Descending Salt Lake Center
Tue 02:10:44 PM 46.2111 -111.9772 North 323 372 13,900 -1,355 Descending Salt Lake Center
Tue 02:11:46 PM 46.2828 -111.9792 359° North 265 305 12,600 -968 Descending Salt Lake Center
Tue 02:12:48 PM 46.3486 -111.9786 360° North 241 277 11,900 -677 Descending Salt Lake Center
Tue 02:14:00 PM 46.4581 -111.9500 North  Level FlightAware Approximate

Login

Don't have an account? Register now (free) for customized features, flight alerts, and more!